Time;durP1;ratioP1;P1;durP2;ratioP2;P2;SDS_P1;SDS_P2;PMS_P1;PMS_P2;Temp;Humidity;BMP_temperature;BMP_pressure;BME280_temperature;BME280_humidity;BME280_pressure;Samples;Min_cycle;Max_cycle;Signal;HPM_P1;HPM_P2
2024/01/13 00:00:35;;;;;;;15.57;5.72;;;;;;;0.98;62.88;101163.56;10519189;28;20105;-62
2024/01/13 00:05:37;;;;;;;12.30;5.63;;;;;;;1.04;62.61;101153.25;10501498;28;20156;-62
2024/01/13 00:10:39;;;;;;;12.15;5.38;;;;;;;0.92;63.03;101158.41;10527496;28;20040;-62
2024/01/13 00:15:41;;;;;;;14.45;5.72;;;;;;;0.83;63.06;101140.38;10525472;28;20519;-64
2024/01/13 00:20:43;;;;;;;18.23;5.55;;;;;;;0.90;63.04;101126.66;10526460;28;20135;-62
2024/01/13 00:25:46;;;;;;;13.45;5.43;;;;;;;0.87;63.01;101129.22;10525839;28;20177;-64
2024/01/13 00:30:48;;;;;;;15.68;5.18;;;;;;;0.88;63.19;101123.22;10525456;28;20431;-64
2024/01/13 00:35:50;;;;;;;10.32;5.10;;;;;;;0.96;63.03;101118.06;10525268;28;20077;-62
2024/01/13 00:40:52;;;;;;;15.52;6.03;;;;;;;0.87;63.39;101107.78;10532075;28;20052;-63
2024/01/13 00:45:54;;;;;;;13.73;5.88;;;;;;;0.80;63.50;101095.75;10525445;28;20051;-64
2024/01/13 00:50:56;;;;;;;13.98;5.55;;;;;;;0.89;63.36;101088.03;10514896;28;20136;-64
2024/01/13 00:55:59;;;;;;;11.45;5.18;;;;;;;0.86;63.31;101090.59;10512893;28;20047;-64
2024/01/13 01:01:02;;;;;;;10.07;4.15;;;;;;;0.75;63.75;101084.63;10524572;28;20364;-63
2024/01/13 01:06:05;;;;;;;15.13;6.13;;;;;;;0.74;63.71;101064.88;10527518;28;20048;-64
2024/01/13 01:11:08;;;;;;;13.50;6.15;;;;;;;0.73;63.67;101064.00;10538907;28;20078;-63
2024/01/13 01:16:12;;;;;;;12.00;5.35;;;;;;;0.76;63.73;101065.72;10523580;28;20512;-63
2024/01/13 01:21:15;;;;;;;13.07;5.05;;;;;;;0.76;63.66;101066.59;10526618;28;20047;-63
2024/01/13 01:26:20;;;;;;;14.90;6.07;;;;;;;0.65;64.13;101058.03;10526542;28;20089;-63
2024/01/13 01:31:22;;;;;;;10.70;5.30;;;;;;;0.72;64.24;101051.16;10515372;28;20048;-64
2024/01/13 01:36:24;;;;;;;15.70;6.90;;;;;;;0.81;63.87;101044.25;10524323;28;20683;-63
2024/01/13 01:41:26;;;;;;;11.57;5.28;;;;;;;0.80;63.86;101042.56;10444520;28;20567;-63
2024/01/13 01:46:31;;;;;;;12.52;5.03;;;;;;;0.75;64.01;101031.41;10441773;28;20509;-63
2024/01/13 01:51:33;;;;;;;15.82;6.22;;;;;;;0.85;63.84;101033.09;10441276;28;20493;-63
2024/01/13 01:56:36;;;;;;;13.15;5.45;;;;;;;0.77;63.96;101028.84;10438095;28;20053;-64
2024/01/13 02:01:39;;;;;;;13.20;5.65;;;;;;;0.64;64.43;101019.41;10438963;28;20045;-64
2024/01/13 02:06:41;;;;;;;12.30;5.03;;;;;;;0.83;64.13;101018.53;10438517;28;20041;-63
2024/01/13 02:11:43;;;;;;;13.10;6.03;;;;;;;0.84;63.91;101010.78;10439664;28;21273;-64
2024/01/13 02:16:45;;;;;;;14.90;5.88;;;;;;;0.83;64.08;101011.63;10437032;28;20063;-63
2024/01/13 02:21:47;;;;;;;12.57;5.30;;;;;;;0.85;63.92;101014.22;10438419;28;20033;-63
2024/01/13 02:26:49;;;;;;;11.18;5.20;;;;;;;0.95;63.84;101015.91;10437543;28;20033;-63
2024/01/13 02:31:51;;;;;;;12.80;5.13;;;;;;;0.95;63.82;101008.19;10452675;28;20509;-63
2024/01/13 02:36:53;;;;;;;15.40;6.03;;;;;;;0.93;63.92;101022.78;10437277;28;20044;-63
2024/01/13 02:41:54;;;;;;;19.10;6.65;;;;;;;0.93;63.87;101013.31;10435310;28;20513;-63
2024/01/13 02:46:57;;;;;;;12.57;5.38;;;;;;;0.96;63.74;101008.16;10450931;28;20115;-63
2024/01/13 02:51:59;;;;;;;14.50;5.78;;;;;;;0.96;63.82;101010.75;10444092;28;20048;-63
2024/01/13 02:57:01;;;;;;;16.55;5.63;;;;;;;0.92;63.84;101005.59;10455228;28;20235;-64
2024/01/13 03:02:03;;;;;;;11.23;5.60;;;;;;;1.05;63.63;101002.13;10452323;28;20128;-63
2024/01/13 03:07:05;;;;;;;12.07;5.03;;;;;;;1.06;63.59;100984.09;10435901;28;20059;-63
2024/01/13 03:12:07;;;;;;;11.27;4.78;;;;;;;0.92;63.90;100988.44;10435945;28;20824;-64
2024/01/13 03:17:09;;;;;;;14.63;5.45;;;;;;;0.77;64.37;100985.06;10443711;28;20547;-64
2024/01/13 03:22:13;;;;;;;10.70;4.57;;;;;;;0.77;64.18;100977.34;10442218;28;20168;-63
2024/01/13 03:27:15;;;;;;;15.73;5.68;;;;;;;0.83;64.24;100985.88;10441388;28;20527;-64
2024/01/13 03:32:17;;;;;;;11.27;5.32;;;;;;;0.77;64.33;100969.63;10432991;28;20523;-64
2024/01/13 03:37:19;;;;;;;13.77;5.20;;;;;;;0.82;64.39;100963.59;10442317;28;20219;-64
2024/01/13 03:42:21;;;;;;;14.15;5.10;;;;;;;0.84;64.22;100945.53;10517930;28;20446;-64
2024/01/13 03:47:24;;;;;;;10.15;4.60;;;;;;;0.81;64.28;100943.84;10518937;28;20380;-63
2024/01/13 03:52:26;;;;;;;10.98;5.35;;;;;;;0.81;64.41;100943.00;10522284;28;20040;-63
2024/01/13 03:57:28;;;;;;;13.75;5.18;;;;;;;0.84;64.29;100930.97;10522792;28;20042;-64
2024/01/13 04:02:30;;;;;;;12.85;4.55;;;;;;;0.86;64.16;100918.94;10526175;28;20048;-63
2024/01/13 04:07:32;;;;;;;12.40;4.32;;;;;;;0.82;64.47;100921.53;10517946;28;20421;-64
2024/01/13 04:12:34;;;;;;;11.50;5.03;;;;;;;0.84;64.33;100910.34;10503493;28;20753;-63
2024/01/13 04:17:36;;;;;;;10.50;3.70;;;;;;;0.88;64.26;100911.19;10499742;28;20047;-63
2024/01/13 04:22:38;;;;;;;11.15;4.60;;;;;;;0.88;64.29;100890.59;10529424;28;20040;-64
2024/01/13 04:27:40;;;;;;;9.38;3.78;;;;;;;0.94;64.20;100894.00;10520770;28;20045;-63
2024/01/13 04:32:42;;;;;;;10.40;4.05;;;;;;;0.93;64.07;100900.00;10517095;28;20428;-63
2024/01/13 04:37:45;;;;;;;12.23;4.00;;;;;;;0.88;64.27;100900.91;10516513;28;20059;-63
2024/01/13 04:42:47;;;;;;;9.35;4.32;;;;;;;0.79;64.39;100895.81;10519343;28;20051;-63
2024/01/13 04:47:49;;;;;;;12.65;4.10;;;;;;;0.80;64.73;100884.63;10517504;28;20048;-63
2024/01/13 04:52:52;;;;;;;9.18;4.07;;;;;;;0.83;64.32;100890.59;10516616;28;20093;-63
2024/01/13 04:57:54;;;;;;;8.40;3.75;;;;;;;0.74;64.70;100885.53;10525432;28;20575;-63
2024/01/13 05:02:56;;;;;;;8.77;4.20;;;;;;;0.88;64.46;100878.59;10524009;28;20040;-64
2024/01/13 05:07:58;;;;;;;12.20;4.53;;;;;;;0.87;64.32;100868.31;10523837;28;20125;-63
2024/01/13 05:13:00;;;;;;;9.95;5.25;;;;;;;0.82;64.57;100872.59;10523206;28;20040;-64
2024/01/13 05:18:02;;;;;;;9.13;3.88;;;;;;;0.86;64.24;100867.44;10522751;28;20044;-63
2024/01/13 05:23:04;;;;;;;10.45;4.20;;;;;;;0.84;64.39;100864.00;10522742;28;20101;-64
2024/01/13 05:28:06;;;;;;;8.80;4.18;;;;;;;0.87;64.29;100853.69;10490722;28;20638;-63
2024/01/13 05:33:08;;;;;;;7.03;3.85;;;;;;;1.10;63.97;100850.97;10523226;28;20102;-63
2024/01/13 05:38:11;;;;;;;8.38;3.95;;;;;;;1.15;63.64;100854.38;10505560;28;20068;-63
2024/01/13 05:43:13;;;;;;;8.13;3.53;;;;;;;1.21;63.51;100851.75;10489212;28;20164;-63
2024/01/13 05:48:15;;;;;;;11.77;3.83;;;;;;;1.18;63.50;100852.63;10522726;28;20158;-64
2024/01/13 05:53:17;;;;;;;12.15;4.13;;;;;;;1.10;63.60;100849.25;10531282;28;20143;-63
2024/01/13 05:58:19;;;;;;;10.95;4.47;;;;;;;1.13;63.69;100850.97;10522056;28;20309;-63
2024/01/13 06:03:21;;;;;;;8.25;3.75;;;;;;;1.19;63.40;100838.03;10536722;27;21144;-63
2024/01/13 06:08:23;;;;;;;6.60;3.50;;;;;;;1.20;63.31;100832.84;10521764;28;20170;-63
2024/01/13 06:13:25;;;;;;;10.55;4.72;;;;;;;1.17;63.25;100824.31;10528941;28;20066;-63
2024/01/13 06:18:27;;;;;;;7.47;3.83;;;;;;;1.28;63.02;100825.06;10521096;28;20052;-64
2024/01/13 06:23:29;;;;;;;9.18;3.63;;;;;;;1.34;62.83;100813.00;10520245;28;20051;-63
2024/01/13 06:28:31;;;;;;;9.73;4.72;;;;;;;1.46;62.97;100816.34;10509581;28;20207;-63
2024/01/13 06:33:35;;;;;;;7.88;3.70;;;;;;;1.25;63.04;100817.38;10507852;28;20044;-63
2024/01/13 06:38:38;;;;;;;11.30;4.80;;;;;;;1.32;62.99;100814.72;10522664;28;20052;-63
2024/01/13 06:43:40;;;;;;;11.98;4.05;;;;;;;1.29;62.96;100816.47;10521557;28;20109;-63
2024/01/13 06:48:44;;;;;;;10.15;4.03;;;;;;;1.23;63.06;100812.25;10522732;28;20614;-63
2024/01/13 06:53:46;;;;;;;10.25;4.05;;;;;;;1.24;62.95;100821.66;10520889;28;20131;-63
2024/01/13 06:58:48;;;;;;;7.15;3.13;;;;;;;1.21;62.98;100813.97;10518940;28;20307;-63
2024/01/13 07:03:52;;;;;;;11.88;3.80;;;;;;;1.10;63.10;100814.91;10504481;28;20036;-63
2024/01/13 07:08:55;;;;;;;7.60;3.83;;;;;;;1.14;63.22;100820.03;10521926;28;20040;-63
2024/01/13 07:13:57;;;;;;;7.00;3.67;;;;;;;1.25;62.80;100819.94;10519296;28;20044;-63
2024/01/13 07:18:59;;;;;;;12.68;4.05;;;;;;;1.19;62.83;100815.72;10501885;28;20162;-63
2024/01/13 07:24:03;;;;;;;8.38;3.83;;;;;;;1.22;62.95;100825.97;10524348;28;20414;-63
2024/01/13 07:29:05;;;;;;;8.55;3.47;;;;;;;1.20;62.96;100827.72;10517011;28;20054;-64
2024/01/13 07:34:07;;;;;;;9.80;4.45;;;;;;;1.31;62.87;100830.22;10517667;28;20043;-64
2024/01/13 07:39:12;;;;;;;10.70;4.60;;;;;;;1.45;62.53;100822.34;10516312;28;20059;-64
2024/01/13 07:44:14;;;;;;;13.25;4.13;;;;;;;1.31;62.71;100805.31;10520993;28;20063;-64
2024/01/13 07:49:16;;;;;;;9.98;3.75;;;;;;;1.30;62.75;100818.16;10519474;28;20369;-65
2024/01/13 07:54:19;;;;;;;9.82;4.43;;;;;;;1.22;62.79;100807.94;10499854;28;20044;-64
2024/01/13 07:59:22;;;;;;;9.02;4.07;;;;;;;1.27;62.77;100802.75;10506937;28;20492;-64
2024/01/13 08:04:24;;;;;;;9.15;4.13;;;;;;;1.24;62.79;100802.75;10519627;28;20138;-64
2024/01/13 08:09:26;;;;;;;9.65;3.67;;;;;;;1.32;62.63;100806.13;10517684;28;20052;-63
2024/01/13 08:14:28;;;;;;;7.18;3.33;;;;;;;1.40;62.42;100790.63;10524209;28;20040;-64
2024/01/13 08:19:30;;;;;;;10.27;4.05;;;;;;;1.51;62.21;100773.31;10530363;28;20165;-64
2024/01/13 08:24:32;;;;;;;6.70;3.28;;;;;;;1.59;62.03;100772.38;10532370;28;20051;-64
2024/01/13 08:29:34;;;;;;;7.88;4.05;;;;;;;1.59;61.92;100774.97;10511685;28;20547;-64
2024/01/13 08:34:36;;;;;;;11.07;4.25;;;;;;;1.71;61.80;100780.00;10505794;28;20052;-64
2024/01/13 08:39:38;;;;;;;9.10;4.18;;;;;;;1.58;61.87;100772.41;10524182;28;20064;-66
2024/01/13 08:44:40;;;;;;;8.35;4.47;;;;;;;1.63;61.76;100747.41;10505637;28;20047;-68
2024/01/13 08:49:42;;;;;;;11.82;5.63;;;;;;;1.74;61.50;100763.63;10531486;28;20435;-68
2024/01/13 08:54:44;;;;;;;9.13;4.25;;;;;;;1.77;61.32;100755.84;10524738;28;20131;-68
2024/01/13 08:59:46;;;;;;;9.30;3.88;;;;;;;1.73;61.29;100767.06;10524060;28;20135;-68
2024/01/13 09:04:48;;;;;;;7.00;3.42;;;;;;;1.53;61.72;100746.66;10493592;28;20052;-68
2024/01/13 09:09:51;;;;;;;7.13;3.70;;;;;;;1.57;61.60;100725.13;10529360;28;20039;-68
2024/01/13 09:14:53;;;;;;;7.60;3.78;;;;;;;1.65;61.77;100694.09;10527801;27;20056;-68
2024/01/13 09:19:55;;;;;;;7.80;3.65;;;;;;;1.80;61.50;100689.66;10525879;28;20137;-69
2024/01/13 09:24:59;;;;;;;10.07;4.57;;;;;;;1.86;61.02;100711.91;10526581;28;20083;-68
2024/01/13 09:30:02;;;;;;;9.95;3.83;;;;;;;1.70;61.38;100736.19;10534159;28;20078;-68
2024/01/13 09:35:05;;;;;;;6.72;3.92;;;;;;;1.61;61.33;100731.97;10525959;28;20123;-68
2024/01/13 09:40:07;;;;;;;7.15;3.75;;;;;;;1.54;61.53;100719.16;10520369;27;20055;-68
2024/01/13 09:45:11;;;;;;;14.48;4.75;;;;;;;1.65;61.46;100719.88;10531215;27;20048;-68
2024/01/13 09:50:13;;;;;;;12.70;4.93;;;;;;;1.71;61.30;100712.09;10531789;27;20781;-68
2024/01/13 09:55:17;;;;;;;10.55;4.63;;;;;;;1.74;61.17;100691.44;10519951;28;20039;-68
2024/01/13 10:00:19;;;;;;;9.00;3.88;;;;;;;1.77;61.00;100710.28;10524236;27;20059;-68
2024/01/13 10:05:22;;;;;;;7.88;3.35;;;;;;;1.82;60.91;100705.94;10514744;28;20043;-68
2024/01/13 10:10:25;;;;;;;6.45;3.15;;;;;;;1.79;60.79;100663.84;10538790;27;20083;-68
2024/01/13 10:15:27;;;;;;;5.75;3.10;;;;;;;1.98;60.69;100640.41;10502463;28;20047;-69
2024/01/13 10:20:29;;;;;;;5.82;3.17;;;;;;;2.05;60.47;100623.13;10521999;28;20505;-68
2024/01/13 10:25:31;;;;;;;8.13;3.28;;;;;;;2.20;60.07;100628.91;10521584;28;20127;-67
2024/01/13 10:30:34;;;;;;;7.63;3.55;;;;;;;2.01;59.97;100655.00;10528174;28;20408;-68
2024/01/13 10:35:36;;;;;;;7.30;4.18;;;;;;;1.96;60.39;100673.09;10520777;28;20183;-68
2024/01/13 10:40:38;;;;;;;7.10;3.20;;;;;;;1.94;60.43;100679.16;10501997;28;20048;-68
2024/01/13 10:45:43;;;;;;;6.30;3.67;;;;;;;1.79;60.22;100671.59;10520734;28;20043;-68
2024/01/13 10:50:49;;;;;;;6.03;3.03;;;;;;;1.91;60.39;100676.63;10523956;28;20055;-68
2024/01/13 10:55:53;;;;;;;5.82;3.20;;;;;;;1.85;60.09;100680.09;10518950;28;20536;-68
2024/01/13 11:00:55;;;;;;;7.50;3.10;;;;;;;1.83;60.34;100683.56;10499924;28;20036;-68
2024/01/13 11:05:57;;;;;;;6.45;3.10;;;;;;;1.90;60.26;100682.63;10522981;28;20048;-68
2024/01/13 11:11:01;;;;;;;5.30;2.53;;;;;;;1.81;60.02;100657.81;10520515;28;20427;-68
2024/01/13 11:16:08;;;;;;;4.82;2.58;;;;;;;1.74;60.11;100639.88;10519818;28;20039;-69
2024/01/13 11:21:11;;;;;;;6.95;3.30;;;;;;;1.71;59.70;100630.44;10498261;28;20040;-68
2024/01/13 11:26:19;;;;;;;6.50;2.63;;;;;;;1.76;59.63;100614.91;10499054;28;20052;-68
2024/01/13 11:31:38;;;;;;;5.00;2.70;;;;;;;1.65;59.28;100607.31;10517857;28;20040;-68
2024/01/13 11:36:52;;;;;;;4.35;2.53;;;;;;;1.61;59.69;100615.09;10522476;28;20040;-68
2024/01/13 11:41:55;;;;;;;6.75;2.80;;;;;;;1.43;59.69;100611.03;10520890;28;20133;-68
2024/01/13 11:47:06;;;;;;;6.00;2.85;;;;;;;1.37;59.20;100603.38;10498295;28;20496;-68
2024/01/13 11:52:16;;;;;;;5.45;2.60;;;;;;;1.56;59.45;100593.69;10514919;28;20717;-68
2024/01/13 11:57:18;;;;;;;6.45;2.88;;;;;;;1.58;59.47;100590.25;10517618;28;20066;-68
2024/01/13 12:02:21;;;;;;;5.90;2.42;;;;;;;1.61;59.48;100576.44;10514438;28;20044;-68
2024/01/13 12:07:24;;;;;;;5.13;2.90;;;;;;;1.55;59.05;100566.19;10516027;28;20146;-68
2024/01/13 12:12:26;;;;;;;5.55;2.85;;;;;;;1.59;59.07;100562.72;10514756;28;20040;-68
2024/01/13 12:17:28;;;;;;;8.27;3.45;;;;;;;1.61;59.08;100551.50;10515612;28;20052;-68
2024/01/13 12:22:31;;;;;;;6.00;3.00;;;;;;;1.72;59.01;100546.22;10498874;28;20208;-68
2024/01/13 12:27:34;;;;;;;7.60;3.20;;;;;;;1.58;58.95;100536.09;10513548;28;20032;-67
2024/01/13 12:32:38;;;;;;;8.60;3.80;;;;;;;1.59;59.07;100521.47;10516595;28;20043;-67
2024/01/13 12:37:40;;;;;;;5.40;3.15;;;;;;;1.73;58.87;100506.66;10499735;28;20044;-67
2024/01/13 12:42:42;;;;;;;6.90;3.45;;;;;;;1.73;58.72;100504.06;10498684;28;20036;-68
2024/01/13 12:47:51;;;;;;;6.63;3.08;;;;;;;1.72;58.54;100498.09;10514041;28;20036;-68
2024/01/13 12:52:57;;;;;;;6.68;3.25;;;;;;;1.75;59.04;100497.16;10516634;28;20326;-67
2024/01/13 12:57:59;;;;;;;8.60;3.47;;;;;;;1.63;58.90;100499.91;10520584;28;20442;-67
2024/01/13 13:03:02;;;;;;;8.98;4.15;;;;;;;1.88;58.44;100484.06;10516329;28;20123;-67
2024/01/13 13:08:04;;;;;;;9.60;3.40;;;;;;;2.05;58.46;100458.00;10497137;28;20130;-67
2024/01/13 13:13:06;;;;;;;6.72;3.50;;;;;;;2.04;58.06;100453.72;10515029;28;20055;-68
2024/01/13 13:18:08;;;;;;;6.35;2.97;;;;;;;2.17;58.08;100439.75;10526312;28;20044;-67
2024/01/13 13:23:11;;;;;;;8.93;3.50;;;;;;;2.22;57.96;100428.44;10528093;28;20071;-67
2024/01/13 13:28:13;;;;;;;8.23;3.63;;;;;;;2.23;57.21;100414.66;10523273;28;20496;-68
2024/01/13 13:33:15;;;;;;;6.85;3.65;;;;;;;2.27;57.82;100417.19;10527886;28;20119;-67
2024/01/13 13:38:18;;;;;;;7.20;3.72;;;;;;;2.25;57.46;100406.03;10526874;28;20084;-67
2024/01/13 13:43:20;;;;;;;6.50;3.60;;;;;;;2.04;57.92;100405.56;10522284;28;20514;-68
2024/01/13 13:48:24;;;;;;;5.65;3.03;;;;;;;1.93;58.19;100386.00;10524764;28;20036;-68
2024/01/13 13:53:26;;;;;;;7.50;3.83;;;;;;;1.83;58.89;100382.72;10530289;27;20044;-68
2024/01/13 13:58:28;;;;;;;7.35;3.78;;;;;;;1.79;58.91;100364.72;10530225;27;20052;-67
2024/01/13 14:03:30;;;;;;;6.47;3.05;;;;;;;1.75;59.06;100381.13;10523832;28;20093;-68
2024/01/13 14:08:32;;;;;;;7.45;4.15;;;;;;;1.60;59.24;100382.25;10524005;28;20484;-67
2024/01/13 14:13:34;;;;;;;6.10;3.30;;;;;;;1.62;59.50;100392.53;10523369;28;20050;-67
2024/01/13 14:18:36;;;;;;;9.38;3.90;;;;;;;1.67;59.57;100386.41;10505628;28;20063;-67
2024/01/13 14:23:39;;;;;;;7.25;4.07;;;;;;;1.55;60.03;100381.47;10524949;28;20101;-67
2024/01/13 14:28:41;;;;;;;8.02;3.88;;;;;;;1.48;60.39;100379.03;10520448;28;20136;-67
2024/01/13 14:33:43;;;;;;;10.95;3.53;;;;;;;1.53;60.73;100382.34;10523229;28;20032;-67
2024/01/13 14:38:45;;;;;;;10.05;3.72;;;;;;;1.51;60.71;100386.69;10519980;28;20056;-67
2024/01/13 14:43:47;;;;;;;7.15;3.10;;;;;;;1.36;61.14;100393.78;10522880;27;20046;-66
2024/01/13 14:48:50;;;;;;;6.53;3.78;;;;;;;1.33;61.48;100391.28;10523866;28;20123;-67
2024/01/13 14:53:52;;;;;;;6.72;3.72;;;;;;;1.52;61.04;100375.53;10521967;28;20492;-66
2024/01/13 14:58:54;;;;;;;6.32;3.42;;;;;;;1.41;61.56;100372.25;10512430;27;20058;-67
2024/01/13 15:03:56;;;;;;;7.82;3.20;;;;;;;1.43;61.46;100376.50;10515709;28;20048;-67
2024/01/13 15:08:58;;;;;;;6.30;3.40;;;;;;;1.33;62.17;100378.38;10520132;28;20125;-66
2024/01/13 15:14:01;;;;;;;8.88;3.78;;;;;;;1.32;61.98;100366.38;10517666;28;20408;-66
2024/01/13 15:19:05;;;;;;;8.52;3.42;;;;;;;1.25;62.62;100358.75;10516451;28;20085;-67
2024/01/13 15:24:11;;;;;;;7.05;4.10;;;;;;;1.18;63.04;100370.03;10517567;28;20040;-67
2024/01/13 15:29:13;;;;;;;9.10;4.05;;;;;;;1.12;63.03;100364.97;10515443;28;20081;-67
2024/01/13 15:34:15;;;;;;;7.85;3.83;;;;;;;1.14;63.03;100356.34;10516836;28;20032;-67
2024/01/13 15:39:19;;;;;;;7.50;3.85;;;;;;;1.22;63.17;100357.06;10516441;28;20571;-66
2024/01/13 15:44:21;;;;;;;12.00;4.18;;;;;;;1.19;63.01;100356.28;10520117;28;20046;-66
2024/01/13 15:49:25;;;;;;;8.43;4.55;;;;;;;1.09;63.66;100350.41;10497595;28;20496;-67
2024/01/13 15:54:27;;;;;;;10.32;5.43;;;;;;;1.13;63.42;100352.06;10498550;28;20050;-67
2024/01/13 15:59:29;;;;;;;9.88;4.28;;;;;;;1.19;63.34;100345.97;10496707;28;20043;-67
2024/01/13 16:04:32;;;;;;;8.63;4.43;;;;;;;1.20;63.26;100327.91;10514253;28;20614;-67
2024/01/13 16:09:34;;;;;;;9.13;4.18;;;;;;;1.13;63.61;100323.75;10517646;28;20032;-67
2024/01/13 16:14:36;;;;;;;7.90;4.05;;;;;;;1.26;63.27;100325.25;10516172;28;20044;-67
2024/01/13 16:19:38;;;;;;;8.88;4.50;;;;;;;1.31;63.34;100318.31;10515844;28;20052;-67
2024/01/13 16:24:40;;;;;;;8.00;4.28;;;;;;;1.24;62.96;100314.09;10515411;28;20040;-67
2024/01/13 16:29:48;;;;;;;7.65;4.07;;;;;;;1.27;63.08;100313.22;10516884;28;20051;-67
2024/01/13 16:34:51;;;;;;;10.57;4.50;;;;;;;1.28;63.03;100313.19;10511725;28;20055;-66
2024/01/13 16:39:53;;;;;;;9.10;3.72;;;;;;;1.31;63.00;100313.16;10519565;28;20530;-67
2024/01/13 16:44:55;;;;;;;6.55;3.55;;;;;;;1.32;62.73;100307.09;10516209;28;20586;-67
2024/01/13 16:50:00;;;;;;;8.32;4.32;;;;;;;1.23;62.82;100307.28;10516753;28;20135;-65
2024/01/13 16:55:17;;;;;;;9.45;4.22;;;;;;;1.19;62.81;100303.03;10531517;27;20070;-66
2024/01/13 17:00:19;;;;;;;8.10;3.70;;;;;;;1.20;62.99;100296.13;10506775;28;20054;-65
2024/01/13 17:05:26;;;;;;;11.52;4.75;;;;;;;1.21;62.68;100290.97;10527139;28;20040;-65
2024/01/13 17:10:28;;;;;;;10.48;4.75;;;;;;;1.28;62.40;100277.13;10519473;28;20036;-65
2024/01/13 17:15:32;;;;;;;9.15;4.22;;;;;;;1.24;62.44;100282.34;10517381;27;20502;-65
2024/01/13 17:20:34;;;;;;;6.60;3.58;;;;;;;1.16;62.47;100289.34;10503590;28;20040;-66
2024/01/13 17:25:38;;;;;;;8.60;4.15;;;;;;;1.05;62.89;100288.69;10519847;28;20130;-65
2024/01/13 17:30:40;;;;;;;12.73;5.32;;;;;;;1.34;62.54;100292.47;10521556;27;20055;-66
2024/01/13 17:35:42;;;;;;;9.10;4.18;;;;;;;1.41;62.03;100290.66;10519392;27;20153;-65
2024/01/13 17:40:45;;;;;;;9.50;5.38;;;;;;;1.34;61.88;100289.88;10505448;28;20075;-65
2024/01/13 17:45:47;;;;;;;10.80;4.65;;;;;;;1.33;62.15;100293.34;10502531;28;20180;-65
2024/01/13 17:50:49;;;;;;;8.93;4.28;;;;;;;1.25;62.04;100287.47;10521363;28;20918;-64
2024/01/13 17:55:51;;;;;;;7.95;3.85;;;;;;;1.28;61.97;100295.16;10523032;28;20400;-65
2024/01/13 18:00:53;;;;;;;7.60;3.70;;;;;;;1.15;62.21;100287.66;10503900;28;20044;-64
2024/01/13 18:05:56;;;;;;;8.27;3.92;;;;;;;1.22;62.25;100290.09;10520748;28;20113;-64
2024/01/13 18:10:58;;;;;;;10.48;5.00;;;;;;;1.24;62.29;100287.47;10517899;28;20052;-65
2024/01/13 18:16:00;;;;;;;8.25;4.47;;;;;;;1.30;62.02;100284.81;10528051;28;20139;-64
2024/01/13 18:21:03;;;;;;;8.63;3.63;;;;;;;1.34;62.14;100274.44;10518616;27;20428;-64
2024/01/13 18:26:06;;;;;;;7.25;3.50;;;;;;;1.38;62.01;100276.06;10514850;28;20044;-65
2024/01/13 18:31:08;;;;;;;8.43;4.35;;;;;;;1.41;61.95;100285.50;10501550;28;20040;-65
2024/01/13 18:36:10;;;;;;;8.13;3.72;;;;;;;1.41;61.98;100280.34;10521424;27;20056;-65
2024/01/13 18:41:13;;;;;;;10.88;4.85;;;;;;;1.51;61.75;100266.41;10516324;28;20089;-65
2024/01/13 18:46:15;;;;;;;9.15;4.60;;;;;;;1.58;61.86;100254.28;10521077;28;20044;-65
2024/01/13 18:51:17;;;;;;;9.30;4.03;;;;;;;1.55;61.65;100256.88;10518509;27;20066;-65
2024/01/13 18:56:21;;;;;;;8.80;4.53;;;;;;;1.52;61.81;100246.66;10520088;28;20072;-65
2024/01/13 19:01:24;;;;;;;8.02;3.72;;;;;;;1.38;62.10;100247.72;10506601;28;20791;-64
2024/01/13 19:06:27;;;;;;;9.68;4.38;;;;;;;1.45;62.00;100251.06;10521823;28;20487;-64
2024/01/13 19:11:30;;;;;;;8.68;4.72;;;;;;;1.44;61.97;100249.38;10519236;27;20548;-64
2024/01/13 19:16:35;;;;;;;9.55;4.22;;;;;;;1.38;62.13;100245.16;10519931;28;20127;-64
2024/01/13 19:21:40;;;;;;;9.23;4.63;;;;;;;1.38;61.96;100239.16;10505836;28;20044;-63
2024/01/13 19:26:43;;;;;;;11.60;5.13;;;;;;;1.28;62.21;100228.16;10522145;28;20485;-64
2024/01/13 19:31:45;;;;;;;9.10;4.18;;;;;;;1.44;61.90;100225.31;10518861;28;20123;-63
2024/01/13 19:36:48;;;;;;;8.35;4.18;;;;;;;1.65;61.65;100209.44;10520444;28;20048;-63
2024/01/13 19:41:51;;;;;;;9.75;4.25;;;;;;;1.63;61.41;100200.88;10452847;28;20071;-63
2024/01/13 19:46:54;;;;;;;8.40;3.65;;;;;;;1.55;61.56;100189.88;10441546;28;20055;-64
2024/01/13 19:51:56;;;;;;;8.43;3.70;;;;;;;1.52;61.96;100189.94;10435012;28;20045;-64
2024/01/13 19:56:58;;;;;;;7.35;3.65;;;;;;;1.54;61.88;100190.78;10437828;28;20147;-64
2024/01/13 20:02:00;;;;;;;9.20;3.92;;;;;;;1.44;61.92;100191.81;10433695;28;20532;-64
2024/01/13 20:07:03;;;;;;;8.45;4.43;;;;;;;1.49;61.98;100187.41;10436516;28;20044;-63
2024/01/13 20:12:05;;;;;;;9.75;4.18;;;;;;;1.40;62.11;100183.28;10440733;28;20158;-63
2024/01/13 20:17:10;;;;;;;12.23;4.18;;;;;;;1.41;62.02;100171.25;10442912;28;20421;-64
2024/01/13 20:22:12;;;;;;;10.73;4.53;;;;;;;1.53;61.79;100166.72;10450100;28;20049;-65
2024/01/13 20:27:14;;;;;;;10.27;4.95;;;;;;;1.47;61.96;100164.25;10442455;28;20035;-64
2024/01/13 20:32:18;;;;;;;9.13;4.07;;;;;;;1.42;61.85;100167.81;10448345;28;20055;-63
2024/01/13 20:37:21;;;;;;;8.82;4.28;;;;;;;1.52;61.65;100159.88;10442943;28;20045;-63
2024/01/13 20:42:23;;;;;;;8.57;3.92;;;;;;;1.31;61.87;100155.97;10526069;28;20087;-63
2024/01/13 20:47:26;;;;;;;9.05;4.13;;;;;;;1.27;61.84;100154.34;10506064;28;20043;-64
2024/01/13 20:52:29;;;;;;;11.00;4.40;;;;;;;1.21;62.12;100138.13;10524878;28;20105;-63
2024/01/13 20:57:32;;;;;;;9.52;4.05;;;;;;;1.18;62.35;100136.47;10507383;28;20051;-64
2024/01/13 21:02:34;;;;;;;8.00;4.22;;;;;;;1.26;61.96;100137.16;10530648;28;20081;-63
2024/01/13 21:07:37;;;;;;;9.25;4.20;;;;;;;1.35;61.46;100124.13;10505971;28;20488;-64
2024/01/13 21:12:40;;;;;;;8.73;3.50;;;;;;;1.32;61.41;100136.19;10506391;28;20799;-64
2024/01/13 21:17:43;;;;;;;10.27;4.00;;;;;;;1.46;61.52;100128.22;10523096;28;20040;-64
2024/01/13 21:22:45;;;;;;;9.63;3.75;;;;;;;1.38;61.15;100124.94;10493261;28;20747;-64
2024/01/13 21:27:47;;;;;;;8.40;3.90;;;;;;;1.30;61.49;100125.94;10521644;28;20048;-64
2024/01/13 21:32:50;;;;;;;8.70;4.35;;;;;;;1.35;61.53;100120.69;10508568;28;20143;-64
2024/01/13 21:37:52;;;;;;;9.30;4.25;;;;;;;1.33;61.40;100119.88;10526116;28;20098;-64
2024/01/13 21:42:59;;;;;;;9.80;4.55;;;;;;;1.37;61.23;100106.06;10506993;28;20559;-63
2024/01/13 21:48:01;;;;;;;8.48;3.97;;;;;;;1.35;60.93;100100.94;10525047;28;20070;-63
2024/01/13 21:53:03;;;;;;;9.00;3.78;;;;;;;1.34;61.26;100094.06;10522813;28;20044;-63
2024/01/13 21:58:05;;;;;;;11.00;4.40;;;;;;;1.33;61.28;100076.94;10522948;28;20155;-64
2024/01/13 22:03:07;;;;;;;8.50;4.03;;;;;;;1.15;61.25;100067.00;10522301;28;20226;-64
2024/01/13 22:08:10;;;;;;;10.18;4.03;;;;;;;1.02;61.31;100060.38;10520378;28;20086;-64
2024/01/13 22:13:12;;;;;;;10.50;4.68;;;;;;;0.93;61.50;100045.06;10525175;28;20051;-64
2024/01/13 22:18:15;;;;;;;7.22;3.80;;;;;;;0.95;61.66;100045.06;10523460;28;20048;-63
2024/01/13 22:23:17;;;;;;;11.65;4.30;;;;;;;0.81;61.74;100044.47;10523467;28;20051;-64
2024/01/13 22:28:19;;;;;;;10.15;4.30;;;;;;;0.68;61.84;100040.41;10507574;28;20047;-64
2024/01/13 22:33:21;;;;;;;7.75;3.88;;;;;;;0.58;62.49;100033.75;10510367;28;20896;-64
2024/01/13 22:38:23;;;;;;;11.75;4.95;;;;;;;0.66;62.20;100030.16;10534577;28;20048;-64
2024/01/13 22:43:25;;;;;;;8.60;3.65;;;;;;;0.68;62.27;100028.41;10506464;28;20553;-65
2024/01/13 22:48:27;;;;;;;8.63;3.63;;;;;;;0.57;62.22;100032.88;10530773;28;20054;-64
2024/01/13 22:53:29;;;;;;;7.85;3.65;;;;;;;0.42;62.75;100023.72;10535324;28;20468;-64
2024/01/13 22:58:32;;;;;;;9.10;4.53;;;;;;;0.50;62.73;100013.31;10517845;28;20130;-65
2024/01/13 23:03:34;;;;;;;9.10;3.83;;;;;;;0.40;63.00;100001.47;10530882;28;20549;-65
2024/01/13 23:08:36;;;;;;;7.53;3.75;;;;;;;0.49;62.68;99996.16;10520157;28;20036;-65
2024/01/13 23:13:38;;;;;;;10.18;4.25;;;;;;;0.40;62.87;99992.00;10524112;28;20044;-65
2024/01/13 23:18:40;;;;;;;11.23;5.07;;;;;;;0.36;62.74;99994.69;10536045;28;20035;-65